createdAt,value
2023-04-24T00:00:24.205Z,9.37
2023-04-24T00:01:20.847Z,9.65
2023-04-24T00:02:17.774Z,9.87
2023-04-24T00:03:15.212Z,9.60
2023-04-24T00:04:12.369Z,9.67
2023-04-24T00:05:10.074Z,9.84
2023-04-24T00:06:09.057Z,9.74
2023-04-24T00:07:07.792Z,9.49
2023-04-24T00:08:04.425Z,9.31
2023-04-24T00:09:01.979Z,9.25
2023-04-24T00:09:59.012Z,9.22
2023-04-24T00:10:55.748Z,9.34
2023-04-24T00:11:52.555Z,9.47
2023-04-24T00:12:49.396Z,9.05
2023-04-24T00:13:46.148Z,9.39
2023-04-24T00:14:42.934Z,9.44
2023-04-24T00:15:39.582Z,9.42
2023-04-24T00:16:36.334Z,9.39
2023-04-24T00:17:33.201Z,8.92
2023-04-24T00:18:30.248Z,9.27
2023-04-24T00:19:26.851Z,8.97
2023-04-24T00:20:23.692Z,9.18
2023-04-24T00:21:20.598Z,8.88
2023-04-24T00:22:17.218Z,9.01
2023-04-24T00:23:14.065Z,8.92
2023-04-24T00:24:10.775Z,8.83
2023-04-24T00:25:07.960Z,9.22
2023-04-24T00:26:04.604Z,9.32
2023-04-24T00:27:02.068Z,9.51
2023-04-24T00:27:58.694Z,9.59
2023-04-24T00:28:55.305Z,9.68
2023-04-24T00:29:51.980Z,9.22
2023-04-24T00:30:48.678Z,9.38
2023-04-24T00:31:45.403Z,9.44
2023-04-24T00:32:42.118Z,9.48
2023-04-24T00:33:38.900Z,9.48
2023-04-24T00:34:35.501Z,9.49
2023-04-24T00:35:32.150Z,8.95
2023-04-24T00:36:29.144Z,8.83
2023-04-24T00:37:26.347Z,9.06
2023-04-24T00:38:23.312Z,9.20
2023-04-24T00:39:20.695Z,9.29
2023-04-24T00:40:17.326Z,9.09
2023-04-24T00:41:13.955Z,8.99
2023-04-24T00:42:11.037Z,9.24
2023-04-24T00:43:10.000Z,9.17
2023-04-24T00:44:07.190Z,9.25
2023-04-24T00:45:04.432Z,8.82
2023-04-24T00:46:02.835Z,9.03
2023-04-24T00:47:00.184Z,9.02
2023-04-24T00:47:57.193Z,8.85
2023-04-24T00:48:53.891Z,9.17
2023-04-24T00:49:50.520Z,9.23
2023-04-24T00:50:47.093Z,9.20
2023-04-24T00:51:46.547Z,9.23
2023-04-24T00:52:43.336Z,9.12
2023-04-24T00:53:40.146Z,9.30
2023-04-24T00:54:37.237Z,9.35
2023-04-24T00:55:33.864Z,9.23
2023-04-24T00:56:30.981Z,9.22
2023-04-24T00:57:27.768Z,9.39
2023-04-24T00:58:25.523Z,9.34
2023-04-24T00:59:22.180Z,9.10
2023-04-24T01:00:19.265Z,8.80
2023-04-24T01:01:15.992Z,8.96
2023-04-24T01:02:13.860Z,9.10
2023-04-24T01:03:12.132Z,9.03
2023-04-24T01:04:11.116Z,8.95
2023-04-24T01:05:09.317Z,8.85
2023-04-24T01:06:06.623Z,9.07
2023-04-24T01:07:03.359Z,8.91
2023-04-24T01:08:00.615Z,8.83
2023-04-24T01:08:57.216Z,8.69
2023-04-24T01:09:54.106Z,8.69
2023-04-24T01:10:53.278Z,8.63
2023-04-24T01:11:51.214Z,8.56
2023-04-24T01:12:47.872Z,8.69
2023-04-24T01:13:44.604Z,8.53
2023-04-24T01:14:41.321Z,8.55
2023-04-24T01:15:37.969Z,8.69
2023-04-24T01:16:34.718Z,8.71
2023-04-24T01:17:32.337Z,8.53
2023-04-24T01:18:29.247Z,8.17
2023-04-24T01:19:25.867Z,8.58
2023-04-24T01:20:23.558Z,8.71
2023-04-24T01:21:22.186Z,8.64
2023-04-24T01:22:18.817Z,8.70
2023-04-24T01:23:16.253Z,8.63
2023-04-24T01:24:13.121Z,8.54
2023-04-24T01:25:09.883Z,8.73
2023-04-24T01:26:06.583Z,8.83
2023-04-24T01:27:03.265Z,8.73
2023-04-24T01:28:00.827Z,8.40
2023-04-24T01:28:57.549Z,8.48
2023-04-24T01:29:54.631Z,8.47
2023-04-24T01:30:51.327Z,8.74
2023-04-24T01:31:48.507Z,8.59
2023-04-24T01:32:46.358Z,8.70
2023-04-24T01:33:44.141Z,8.65
2023-04-24T01:34:42.279Z,8.44
2023-04-24T01:35:39.125Z,8.07
2023-04-24T01:36:36.370Z,8.65
2023-04-24T01:37:34.189Z,8.83
2023-04-24T01:38:32.263Z,8.70
2023-04-24T01:39:29.694Z,8.70
2023-04-24T01:40:26.401Z,8.58
2023-04-24T01:41:24.536Z,8.47
2023-04-24T01:42:21.289Z,8.67
2023-04-24T01:43:18.128Z,8.81
2023-04-24T01:44:15.275Z,8.62
2023-04-24T01:45:14.029Z,8.78
2023-04-24T01:46:10.982Z,8.99
2023-04-24T01:47:08.019Z,8.95
2023-04-24T01:48:04.901Z,8.86
2023-04-24T01:49:01.676Z,8.57
2023-04-24T01:49:58.880Z,8.24
2023-04-24T01:50:56.651Z,8.68
2023-04-24T01:51:53.553Z,8.64
2023-04-24T01:52:50.190Z,8.75
2023-04-24T01:53:46.869Z,8.64
2023-04-24T01:54:43.443Z,8.58
2023-04-24T01:55:40.217Z,8.78
2023-04-24T01:56:40.537Z,8.60
2023-04-24T01:57:37.202Z,8.43
2023-04-24T01:58:33.846Z,8.64
2023-04-24T01:59:32.062Z,8.59
2023-04-24T02:00:28.666Z,8.97
2023-04-24T02:01:25.796Z,9.02
2023-04-24T02:02:24.993Z,8.71
2023-04-24T02:03:21.887Z,8.64
2023-04-24T02:04:18.743Z,8.87
2023-04-24T02:05:16.102Z,9.03
2023-04-24T02:06:12.786Z,8.45
2023-04-24T02:07:09.358Z,8.16
2023-04-24T02:08:05.916Z,8.35
2023-04-24T02:09:04.032Z,8.70
2023-04-24T02:10:00.859Z,9.02
2023-04-24T02:10:57.483Z,8.56
2023-04-24T02:11:54.050Z,8.55
2023-04-24T02:12:50.739Z,8.45
2023-04-24T02:13:47.331Z,8.31
2023-04-24T02:14:44.691Z,8.62
2023-04-24T02:15:41.327Z,8.61
2023-04-24T02:16:37.949Z,8.71
2023-04-24T02:17:34.605Z,8.37
2023-04-24T02:18:31.290Z,8.25
2023-04-24T02:19:27.933Z,8.27
2023-04-24T02:20:24.839Z,8.48
2023-04-24T02:21:21.415Z,8.58
2023-04-24T02:22:18.191Z,8.58
2023-04-24T02:23:14.875Z,8.59
2023-04-24T02:24:11.510Z,8.72
2023-04-24T02:25:09.083Z,8.77
2023-04-24T02:26:06.794Z,8.97
2023-04-24T02:27:03.921Z,8.81
2023-04-24T02:28:00.555Z,8.61
2023-04-24T02:28:57.154Z,8.78
2023-04-24T02:29:53.770Z,8.70
2023-04-24T02:30:51.572Z,8.77
2023-04-24T02:31:48.161Z,8.46
2023-04-24T02:32:44.950Z,8.36
2023-04-24T02:33:41.865Z,8.53
2023-04-24T02:34:38.962Z,8.20
2023-04-24T02:35:35.797Z,8.31
2023-04-24T02:36:32.891Z,8.14
2023-04-24T02:37:29.577Z,8.18
2023-04-24T02:38:26.172Z,8.39
2023-04-24T02:39:22.979Z,7.99
2023-04-24T02:40:19.588Z,8.61
2023-04-24T02:41:16.202Z,8.45
2023-04-24T02:42:12.793Z,8.73
2023-04-24T02:43:09.552Z,8.71
2023-04-24T02:44:06.175Z,8.43
2023-04-24T02:45:02.790Z,8.29
2023-04-24T02:45:59.503Z,6.68
2023-04-24T02:46:56.187Z,7.92
2023-04-24T02:47:52.837Z,7.76
2023-04-24T02:48:49.510Z,7.76
2023-04-24T02:49:46.115Z,8.03
2023-04-24T02:50:42.747Z,8.00
2023-04-24T02:51:42.150Z,8.03
2023-04-24T02:52:38.826Z,7.75
2023-04-24T02:53:35.546Z,7.73
2023-04-24T02:54:32.216Z,7.98
2023-04-24T02:55:29.101Z,8.53
2023-04-24T02:56:26.039Z,8.74
2023-04-24T02:57:22.668Z,8.75
2023-04-24T02:58:21.091Z,8.73
2023-04-24T02:59:17.867Z,8.64
2023-04-24T03:00:14.738Z,8.61
2023-04-24T03:01:11.609Z,8.44
2023-04-24T03:02:08.562Z,8.51
2023-04-24T03:03:05.562Z,8.21
2023-04-24T03:04:02.818Z,7.62
2023-04-24T03:05:00.844Z,7.41
2023-04-24T03:05:58.129Z,7.31
2023-04-24T03:06:55.869Z,7.10
2023-04-24T03:07:53.757Z,7.00
2023-04-24T03:08:50.453Z,7.03
2023-04-24T03:09:47.282Z,7.03
2023-04-24T03:10:45.263Z,6.93
2023-04-24T03:11:42.834Z,6.75
2023-04-24T03:12:39.413Z,6.88
2023-04-24T03:13:36.089Z,6.87
2023-04-24T03:14:32.778Z,6.87
2023-04-24T03:15:29.443Z,6.73
2023-04-24T03:16:26.453Z,6.76
2023-04-24T03:17:23.128Z,6.79
2023-04-24T03:18:19.851Z,7.00
2023-04-24T03:19:16.698Z,7.14
2023-04-24T03:20:13.424Z,7.14
2023-04-24T03:21:10.047Z,7.21
2023-04-24T03:22:06.598Z,7.18
2023-04-24T03:23:03.173Z,6.99
2023-04-24T03:23:59.957Z,6.95
2023-04-24T03:24:57.716Z,6.38
2023-04-24T03:25:55.808Z,7.11
2023-04-24T03:26:52.732Z,6.92
2023-04-24T03:27:49.432Z,6.79
2023-04-24T03:28:46.007Z,7.03
2023-04-24T03:29:42.838Z,7.10
2023-04-24T03:30:39.614Z,6.86
2023-04-24T03:31:36.209Z,6.81
2023-04-24T03:32:33.395Z,6.84
2023-04-24T03:33:30.390Z,6.89
2023-04-24T03:34:27.050Z,6.87
2023-04-24T03:35:23.864Z,6.77
2023-04-24T03:36:20.624Z,6.68
2023-04-24T03:37:18.102Z,6.66
2023-04-24T03:38:14.665Z,6.56
2023-04-24T03:39:11.280Z,6.58
2023-04-24T03:40:09.211Z,6.81
2023-04-24T03:41:05.816Z,7.31
2023-04-24T03:42:02.412Z,7.57
2023-04-24T03:42:59.017Z,7.04
2023-04-24T03:43:55.798Z,7.28
2023-04-24T03:44:52.409Z,7.19
2023-04-24T03:45:49.146Z,6.99
2023-04-24T03:46:45.755Z,6.87
2023-04-24T03:47:42.435Z,6.92
2023-04-24T03:48:39.129Z,6.91
2023-04-24T03:49:35.768Z,6.90
2023-04-24T03:50:32.344Z,7.02
2023-04-24T03:51:29.049Z,6.89
2023-04-24T03:52:25.599Z,7.03
2023-04-24T03:53:22.239Z,7.04
2023-04-24T03:54:19.401Z,6.98
2023-04-24T03:55:16.487Z,7.11
2023-04-24T03:56:13.104Z,7.06
2023-04-24T03:57:09.700Z,7.07
2023-04-24T03:58:06.986Z,7.01
2023-04-24T03:59:03.611Z,7.07
2023-04-24T04:00:00.991Z,7.06
2023-04-24T04:00:59.182Z,7.17
2023-04-24T04:01:56.021Z,7.35
2023-04-24T04:02:52.660Z,7.40
2023-04-24T04:03:49.463Z,7.28
2023-04-24T04:04:46.650Z,7.37
2023-04-24T04:05:43.603Z,7.40
2023-04-24T04:06:40.251Z,7.31
2023-04-24T04:07:36.758Z,7.23
2023-04-24T04:08:33.355Z,7.13
2023-04-24T04:09:30.476Z,7.31
2023-04-24T04:10:27.066Z,7.50
2023-04-24T04:11:23.818Z,7.71
2023-04-24T04:12:20.646Z,8.16
2023-04-24T04:13:17.257Z,8.36
2023-04-24T04:14:13.870Z,8.22
2023-04-24T04:15:10.881Z,8.25
2023-04-24T04:16:07.554Z,8.13
2023-04-24T04:17:04.161Z,8.10
2023-04-24T04:18:00.810Z,7.98
2023-04-24T04:18:57.651Z,8.65
2023-04-24T04:19:54.246Z,8.70
2023-04-24T04:20:50.793Z,8.58
2023-04-24T04:21:51.729Z,8.53
2023-04-24T04:22:48.402Z,8.65
2023-04-24T04:23:45.008Z,8.34
2023-04-24T04:24:41.699Z,8.64
2023-04-24T04:25:38.289Z,8.55
2023-04-24T04:26:36.504Z,8.57
2023-04-24T04:27:33.389Z,8.87
2023-04-24T04:28:33.852Z,9.18
2023-04-24T04:29:30.523Z,9.30
2023-04-24T04:30:27.199Z,9.63
2023-04-24T04:31:24.444Z,9.33
2023-04-24T04:32:21.110Z,9.02
2023-04-24T04:33:18.218Z,8.85
2023-04-24T04:34:15.314Z,8.87
2023-04-24T04:35:12.043Z,8.86
2023-04-24T04:36:09.690Z,8.80
2023-04-24T04:37:07.025Z,8.98
2023-04-24T04:38:03.611Z,8.83
2023-04-24T04:39:00.470Z,9.00
2023-04-24T04:39:57.062Z,9.15
2023-04-24T04:40:53.631Z,9.29
2023-04-24T04:41:50.225Z,9.59
2023-04-24T04:42:47.046Z,9.74
2023-04-24T04:43:44.082Z,9.64
2023-04-24T04:44:40.943Z,9.59
2023-04-24T04:45:39.831Z,9.23
2023-04-24T04:46:38.197Z,9.45
2023-04-24T04:47:35.161Z,9.73
2023-04-24T04:48:32.654Z,9.79
2023-04-24T04:49:31.739Z,9.90
2023-04-24T04:50:28.634Z,10.06
2023-04-24T04:51:25.312Z,10.19
2023-04-24T04:52:25.969Z,10.43
2023-04-24T04:53:22.615Z,10.66
2023-04-24T04:54:19.316Z,10.50
2023-04-24T04:55:15.954Z,10.29
2023-04-24T04:56:12.666Z,10.04
2023-04-24T04:57:10.046Z,10.02
2023-04-24T04:58:06.761Z,10.07
2023-04-24T04:59:03.338Z,10.02
2023-04-24T04:59:59.966Z,10.01
2023-04-24T05:00:58.397Z,10.28
2023-04-24T05:01:55.104Z,10.54
2023-04-24T05:02:52.449Z,10.25
2023-04-24T05:03:49.368Z,10.44
2023-04-24T05:04:46.338Z,10.43
2023-04-24T05:05:43.468Z,10.44
2023-04-24T05:06:40.176Z,10.22
2023-04-24T05:07:36.911Z,10.21
2023-04-24T05:08:33.517Z,10.53
2023-04-24T05:09:30.676Z,10.65
2023-04-24T05:10:27.401Z,10.25
2023-04-24T05:11:24.397Z,10.22
2023-04-24T05:12:21.033Z,10.21
2023-04-24T05:13:20.768Z,10.43
2023-04-24T05:14:20.117Z,10.41
2023-04-24T05:15:16.727Z,10.49
2023-04-24T05:16:13.277Z,10.60
2023-04-24T05:17:09.959Z,10.56
2023-04-24T05:18:06.686Z,10.59
2023-04-24T05:19:03.786Z,10.62
2023-04-24T05:20:00.473Z,10.71
2023-04-24T05:20:57.125Z,10.98
2023-04-24T05:21:53.764Z,11.05
2023-04-24T05:22:50.456Z,11.08
2023-04-24T05:23:47.111Z,11.15
2023-04-24T05:24:43.678Z,11.09
2023-04-24T05:25:41.492Z,11.06
2023-04-24T05:26:38.176Z,11.01
2023-04-24T05:27:34.888Z,10.95
2023-04-24T05:28:31.624Z,11.00
2023-04-24T05:29:28.309Z,11.28
2023-04-24T05:30:25.078Z,11.25
2023-04-24T05:31:22.173Z,10.39
2023-04-24T05:32:18.796Z,11.33
2023-04-24T05:33:15.592Z,11.37
2023-04-24T05:34:12.281Z,11.28
2023-04-24T05:35:09.153Z,11.37
2023-04-24T05:36:07.567Z,11.31
2023-04-24T05:37:04.786Z,11.27
2023-04-24T05:38:01.413Z,11.31
2023-04-24T05:38:58.029Z,11.32
2023-04-24T05:39:54.608Z,11.34
2023-04-24T05:40:51.158Z,11.46
2023-04-24T05:41:47.756Z,11.52
2023-04-24T05:42:44.388Z,11.59
2023-04-24T05:43:41.018Z,11.60
2023-04-24T05:44:37.650Z,11.40
2023-04-24T05:45:36.955Z,11.55
2023-04-24T05:46:33.638Z,11.32
2023-04-24T05:47:31.028Z,10.82
2023-04-24T05:48:27.783Z,11.21
2023-04-24T05:49:24.471Z,11.11
2023-04-24T05:50:21.146Z,11.00
2023-04-24T05:51:17.819Z,11.06
2023-04-24T05:52:14.621Z,10.72
2023-04-24T05:53:11.774Z,11.22
2023-04-24T05:54:08.416Z,11.26
2023-04-24T05:55:05.497Z,11.39
2023-04-24T05:56:02.274Z,11.31
2023-04-24T05:56:59.363Z,11.16
2023-04-24T05:57:56.092Z,11.34
2023-04-24T05:58:52.738Z,11.43
2023-04-24T05:59:49.692Z,11.32
2023-04-24T06:00:47.768Z,11.39
2023-04-24T06:01:44.498Z,11.30
2023-04-24T06:02:41.437Z,11.12
2023-04-24T06:03:40.420Z,11.42
2023-04-24T06:04:37.293Z,11.52
2023-04-24T06:05:34.046Z,11.73
2023-04-24T06:06:30.723Z,11.97
2023-04-24T06:07:27.666Z,12.18
2023-04-24T06:08:24.348Z,12.22
2023-04-24T06:09:20.888Z,11.92
2023-04-24T06:10:17.598Z,11.78
2023-04-24T06:11:14.364Z,11.83
2023-04-24T06:12:11.048Z,11.81
2023-04-24T06:13:07.711Z,10.41
2023-04-24T06:14:04.303Z,11.52
2023-04-24T06:15:01.356Z,11.81
2023-04-24T06:15:58.015Z,12.02
2023-04-24T06:16:55.017Z,12.24
2023-04-24T06:17:51.788Z,12.52
2023-04-24T06:18:48.560Z,12.32
2023-04-24T06:19:45.535Z,12.39
2023-04-24T06:20:42.840Z,12.62
2023-04-24T06:21:39.491Z,12.25
2023-04-24T06:22:36.558Z,12.34
2023-04-24T06:23:34.071Z,12.23
2023-04-24T06:24:31.894Z,12.34
2023-04-24T06:25:28.937Z,12.48
2023-04-24T06:26:28.506Z,12.65
2023-04-24T06:27:25.090Z,12.63
2023-04-24T06:28:21.791Z,12.62
2023-04-24T06:29:18.417Z,12.57
2023-04-24T06:30:15.052Z,12.34
2023-04-24T06:31:11.689Z,12.48
2023-04-24T06:32:08.912Z,12.68
2023-04-24T06:33:18.856Z,12.92
2023-04-24T06:34:17.331Z,13.22
2023-04-24T06:35:13.904Z,12.89
2023-04-24T06:36:10.680Z,13.24
2023-04-24T06:37:07.627Z,12.98
2023-04-24T06:38:04.347Z,13.36
2023-04-24T06:39:01.237Z,13.13
2023-04-24T06:39:57.855Z,12.90
2023-04-24T06:40:54.448Z,12.92
2023-04-24T06:41:51.086Z,13.01
2023-04-24T06:42:47.738Z,13.18
2023-04-24T06:43:44.724Z,13.45
2023-04-24T06:44:44.499Z,13.35
2023-04-24T06:45:41.367Z,13.48
2023-04-24T06:46:39.247Z,13.51
2023-04-24T06:47:37.740Z,13.48
2023-04-24T06:48:34.319Z,13.49
2023-04-24T06:49:31.097Z,13.76
2023-04-24T06:50:27.769Z,13.90
2023-04-24T06:51:25.145Z,13.61
2023-04-24T06:52:22.193Z,14.31
2023-04-24T06:53:18.886Z,13.55
2023-04-24T06:54:15.455Z,13.41
2023-04-24T06:55:12.290Z,13.15
2023-04-24T06:56:09.170Z,12.70
2023-04-24T06:57:05.825Z,12.69
2023-04-24T06:58:02.691Z,12.82
2023-04-24T06:58:59.249Z,13.07
2023-04-24T06:59:56.018Z,12.88
2023-04-24T07:00:52.694Z,12.85
2023-04-24T07:01:49.454Z,12.55
2023-04-24T07:02:46.171Z,12.56
2023-04-24T07:03:43.198Z,12.36
2023-04-24T07:04:40.120Z,12.41
2023-04-24T07:05:38.088Z,12.58
2023-04-24T07:06:36.920Z,12.56
2023-04-24T07:07:33.646Z,12.54
2023-04-24T07:08:31.685Z,12.47
2023-04-24T07:09:28.321Z,12.46
2023-04-24T07:10:25.553Z,12.35
2023-04-24T07:11:23.230Z,12.05
2023-04-24T07:12:21.617Z,11.96
2023-04-24T07:13:18.545Z,12.28
2023-04-24T07:14:15.301Z,12.32
2023-04-24T07:15:11.963Z,12.77
2023-04-24T07:16:09.809Z,12.96
2023-04-24T07:17:07.264Z,13.23
2023-04-24T07:18:05.785Z,13.27
2023-04-24T07:19:02.745Z,12.83
2023-04-24T07:19:59.407Z,13.16
2023-04-24T07:20:56.345Z,13.33
2023-04-24T07:21:53.743Z,13.59
2023-04-24T07:22:50.544Z,13.79
2023-04-24T07:23:47.111Z,13.25
2023-04-24T07:24:45.141Z,13.05
2023-04-24T07:25:41.823Z,12.70
2023-04-24T07:26:40.156Z,13.18
2023-04-24T07:27:37.304Z,13.52
2023-04-24T07:28:34.050Z,13.73
2023-04-24T07:29:30.970Z,13.95
2023-04-24T07:30:30.510Z,14.03
2023-04-24T07:31:27.232Z,14.14
2023-04-24T07:32:23.914Z,14.40
2023-04-24T07:33:20.673Z,14.36
2023-04-24T07:34:17.431Z,14.17
2023-04-24T07:35:14.111Z,14.37
2023-04-24T07:36:16.524Z,14.52
2023-04-24T07:37:13.268Z,14.71
2023-04-24T07:38:09.895Z,15.03
2023-04-24T07:39:07.094Z,14.76
2023-04-24T07:40:04.817Z,15.07
2023-04-24T07:41:01.422Z,14.89
2023-04-24T07:41:59.690Z,15.14
2023-04-24T07:42:56.334Z,15.26
2023-04-24T07:43:54.707Z,15.48
2023-04-24T07:44:52.198Z,15.89
2023-04-24T07:45:49.184Z,16.13
2023-04-24T07:46:45.976Z,15.54
2023-04-24T07:47:44.938Z,14.60
2023-04-24T07:48:41.700Z,15.42
2023-04-24T07:49:38.465Z,15.69
2023-04-24T07:50:35.869Z,16.03
2023-04-24T07:51:35.677Z,15.77
2023-04-24T07:52:32.338Z,15.72
2023-04-24T07:53:28.953Z,15.68
2023-04-24T07:54:25.656Z,16.26
2023-04-24T07:55:24.756Z,15.48
2023-04-24T07:56:23.499Z,14.57
2023-04-24T07:57:20.114Z,15.24
2023-04-24T07:58:16.697Z,15.54
2023-04-24T07:59:13.331Z,15.45
2023-04-24T08:00:10.511Z,15.27
2023-04-24T08:01:07.752Z,14.67
2023-04-24T08:02:04.515Z,14.66
2023-04-24T08:03:01.502Z,15.33
2023-04-24T08:03:58.455Z,15.60
2023-04-24T08:04:55.778Z,15.40
2023-04-24T08:05:52.718Z,15.34
2023-04-24T08:06:49.468Z,16.17
2023-04-24T08:07:49.646Z,15.59
2023-04-24T08:08:46.255Z,15.85
2023-04-24T08:09:43.054Z,16.18
2023-04-24T08:10:40.088Z,15.71
2023-04-24T08:11:36.672Z,16.08
2023-04-24T08:12:33.348Z,16.34
2023-04-24T08:13:30.090Z,16.43
2023-04-24T08:14:26.835Z,16.41
2023-04-24T08:15:23.464Z,16.44
2023-04-24T08:16:20.221Z,16.33
2023-04-24T08:17:18.437Z,16.49
2023-04-24T08:18:16.764Z,16.37
2023-04-24T08:19:13.530Z,17.05
2023-04-24T08:20:14.670Z,17.05
2023-04-24T08:21:12.317Z,16.80
2023-04-24T08:22:08.953Z,16.32
2023-04-24T08:23:05.819Z,16.66
2023-04-24T08:24:06.130Z,16.50
2023-04-24T08:25:03.100Z,16.28
2023-04-24T08:25:59.859Z,16.51
2023-04-24T08:26:58.954Z,16.76
2023-04-24T08:27:55.771Z,16.65
2023-04-24T08:28:53.046Z,16.67
2023-04-24T08:29:51.107Z,16.95
2023-04-24T08:30:48.816Z,16.48
2023-04-24T08:31:45.471Z,16.22
2023-04-24T08:32:42.683Z,16.33
2023-04-24T08:33:39.438Z,16.77
2023-04-24T08:34:36.092Z,16.53
2023-04-24T08:35:32.698Z,16.15
2023-04-24T08:36:43.435Z,16.52
2023-04-24T08:37:43.121Z,16.60
2023-04-24T08:38:41.525Z,16.22
2023-04-24T08:39:39.310Z,16.16
2023-04-24T08:40:36.097Z,16.32
2023-04-24T08:41:34.029Z,16.68
2023-04-24T08:42:34.392Z,16.15
2023-04-24T08:43:33.268Z,16.18
2023-04-24T08:44:29.982Z,16.63
2023-04-24T08:45:27.107Z,16.40
2023-04-24T08:46:24.018Z,16.61
2023-04-24T08:47:21.612Z,16.21
2023-04-24T08:48:29.783Z,16.35
2023-04-24T08:49:31.666Z,16.86
2023-04-24T08:50:30.801Z,16.99
2023-04-24T08:51:27.642Z,17.16
2023-04-24T08:52:24.529Z,16.96
2023-04-24T08:53:21.162Z,17.13
2023-04-24T08:54:19.149Z,17.21
2023-04-24T08:55:17.832Z,17.52
2023-04-24T08:56:14.586Z,17.22
2023-04-24T08:57:12.645Z,17.04
2023-04-24T08:58:09.513Z,16.81
2023-04-24T08:59:07.549Z,16.78
2023-04-24T09:00:05.740Z,17.47
2023-04-24T09:01:03.091Z,17.62
2023-04-24T09:02:00.618Z,17.46
2023-04-24T09:02:58.683Z,17.24
2023-04-24T09:03:57.296Z,17.11
2023-04-24T09:04:54.802Z,17.74
2023-04-24T09:05:53.473Z,17.77
2023-04-24T09:06:50.972Z,17.37
2023-04-24T09:07:54.340Z,17.66
2023-04-24T09:08:55.158Z,17.34
2023-04-24T09:09:52.659Z,16.76
2023-04-24T09:10:51.174Z,16.61
2023-04-24T09:11:48.083Z,16.76
2023-04-24T09:12:45.437Z,17.04
2023-04-24T09:13:42.922Z,16.66
2023-04-24T09:14:43.669Z,16.63
2023-04-24T09:15:41.536Z,17.20
2023-04-24T09:16:38.382Z,17.03
2023-04-24T09:17:36.538Z,16.96
2023-04-24T09:18:33.865Z,16.99
2023-04-24T09:19:30.697Z,16.77
2023-04-24T09:20:27.305Z,17.24
2023-04-24T09:21:24.348Z,17.21
2023-04-24T09:22:21.424Z,17.19
2023-04-24T09:23:21.137Z,17.38
2023-04-24T09:24:21.455Z,18.01
2023-04-24T09:25:18.237Z,18.70
2023-04-24T09:26:15.973Z,18.79
2023-04-24T09:27:17.624Z,18.33
2023-04-24T09:28:17.185Z,18.08
2023-04-24T09:29:17.987Z,17.64
2023-04-24T09:30:15.559Z,17.60
2023-04-24T09:31:19.522Z,17.89
2023-04-24T09:32:22.958Z,17.79
2023-04-24T09:33:19.980Z,17.53
2023-04-24T09:34:23.720Z,17.72
2023-04-24T09:35:20.860Z,18.00
2023-04-24T09:36:19.012Z,18.70
2023-04-24T09:37:30.307Z,18.33
2023-04-24T09:38:37.903Z,18.89
2023-04-24T09:39:34.564Z,18.90
2023-04-24T09:40:31.148Z,18.06
2023-04-24T09:41:29.640Z,18.43
2023-04-24T09:42:30.433Z,18.69
2023-04-24T09:43:27.927Z,19.34
2023-04-24T09:44:27.157Z,19.33
2023-04-24T09:45:28.484Z,19.01
2023-04-24T09:46:35.257Z,18.82
2023-04-24T09:47:39.139Z,18.73
2023-04-24T09:48:37.685Z,17.92
2023-04-24T09:49:36.036Z,17.83
2023-04-24T09:50:33.351Z,17.89
2023-04-24T09:51:37.768Z,18.25
2023-04-24T09:52:34.352Z,18.33
2023-04-24T09:53:32.083Z,18.81
2023-04-24T09:54:28.705Z,18.86
2023-04-24T09:55:26.401Z,18.11
2023-04-24T09:56:23.829Z,18.58
2023-04-24T09:57:20.463Z,18.63
2023-04-24T09:58:17.168Z,17.34
2023-04-24T09:59:15.154Z,17.67
2023-04-24T10:00:12.672Z,18.23
2023-04-24T10:01:09.371Z,18.64
2023-04-24T10:02:19.103Z,18.68
2023-04-24T10:03:16.077Z,19.28
2023-04-24T10:04:33.023Z,19.24
2023-04-24T10:05:29.793Z,19.50
2023-04-24T10:06:35.406Z,19.70
2023-04-24T10:07:34.434Z,19.70
2023-04-24T10:08:39.977Z,19.31
2023-04-24T10:09:36.795Z,19.41
2023-04-24T10:10:39.430Z,19.55
2023-04-24T10:11:36.657Z,19.81
2023-04-24T10:12:33.686Z,19.29
2023-04-24T10:13:30.603Z,19.18
2023-04-24T10:14:27.363Z,19.40
2023-04-24T10:15:25.222Z,19.09
2023-04-24T10:16:23.393Z,19.05
2023-04-24T10:17:21.978Z,18.99
2023-04-24T10:18:19.132Z,18.52
2023-04-24T10:19:17.478Z,18.88
2023-04-24T10:20:14.312Z,18.57
2023-04-24T10:21:11.185Z,18.79
2023-04-24T10:22:08.980Z,18.89
2023-04-24T10:23:06.126Z,18.72
2023-04-24T10:24:05.150Z,18.79
2023-04-24T10:25:05.598Z,19.31
2023-04-24T10:26:02.839Z,18.91
2023-04-24T10:26:59.662Z,19.05
2023-04-24T10:27:59.471Z,18.68
2023-04-24T10:28:59.111Z,18.74
2023-04-24T10:29:56.210Z,19.09
2023-04-24T10:30:56.388Z,19.72
2023-04-24T10:31:53.191Z,19.02
2023-04-24T10:32:49.863Z,19.51
2023-04-24T10:33:47.158Z,19.18
2023-04-24T10:34:43.819Z,19.29
2023-04-24T10:35:50.018Z,19.24
2023-04-24T10:36:51.914Z,19.39
2023-04-24T10:37:53.237Z,19.43
2023-04-24T10:38:51.213Z,19.73
2023-04-24T10:39:52.448Z,18.95
2023-04-24T10:40:49.090Z,19.41
2023-04-24T10:41:47.489Z,19.32
2023-04-24T10:42:48.846Z,19.62
2023-04-24T10:43:45.528Z,19.44
2023-04-24T10:44:42.208Z,19.24
2023-04-24T10:45:39.855Z,19.22
2023-04-24T10:46:37.447Z,19.58
2023-04-24T10:47:43.649Z,20.37
2023-04-24T10:48:44.886Z,20.32
2023-04-24T10:49:41.738Z,20.68
2023-04-24T10:50:44.499Z,19.61
2023-04-24T10:51:53.987Z,19.37
2023-04-24T10:52:55.582Z,19.65
2023-04-24T10:53:52.612Z,18.79
2023-04-24T10:54:50.416Z,18.70
2023-04-24T10:55:48.487Z,18.88
2023-04-24T10:56:45.135Z,19.27
2023-04-24T10:58:05.088Z,20.29
2023-04-24T10:59:02.233Z,19.73
2023-04-24T11:00:21.678Z,19.61
2023-04-24T11:01:30.075Z,19.47
2023-04-24T11:02:38.151Z,20.00
2023-04-24T11:03:36.640Z,20.36
2023-04-24T11:04:37.132Z,20.60
2023-04-24T11:06:00.372Z,20.54
2023-04-24T11:06:57.036Z,20.67
2023-04-24T11:08:14.004Z,21.26
2023-04-24T11:09:14.222Z,21.15
2023-04-24T11:10:26.911Z,21.27
2023-04-24T11:11:31.746Z,20.34
2023-04-24T11:12:28.466Z,19.98
2023-04-24T11:13:27.339Z,20.41
2023-04-24T11:14:23.999Z,20.77
2023-04-24T11:15:21.039Z,20.12
2023-04-24T11:16:35.317Z,20.21
2023-04-24T11:17:34.598Z,20.32
2023-04-24T11:18:38.788Z,19.91
2023-04-24T11:19:35.488Z,20.48
2023-04-24T11:20:32.220Z,20.58
2023-04-24T11:21:43.209Z,20.71
2023-04-24T11:22:43.643Z,20.03
2023-04-24T11:23:41.897Z,20.11
2023-04-24T11:24:52.056Z,20.25
2023-04-24T11:26:18.830Z,19.81
2023-04-24T11:27:22.870Z,19.56
2023-04-24T11:28:20.240Z,19.41
2023-04-24T11:29:19.239Z,19.12
2023-04-24T11:30:20.469Z,19.47
2023-04-24T11:31:43.105Z,19.46
2023-04-24T11:32:42.446Z,19.41
2023-04-24T11:33:39.218Z,19.30
2023-04-24T11:34:35.897Z,19.31
2023-04-24T11:35:42.682Z,19.76
2023-04-24T11:36:40.300Z,19.83
2023-04-24T11:37:41.615Z,19.95
2023-04-24T11:38:38.492Z,20.29
2023-04-24T11:39:38.443Z,20.13
2023-04-24T11:40:35.123Z,19.63
2023-04-24T11:41:32.431Z,19.72
2023-04-24T11:42:30.234Z,19.53
2023-04-24T11:43:27.205Z,19.72
2023-04-24T11:44:26.027Z,20.20
2023-04-24T11:45:24.878Z,20.13
2023-04-24T11:46:29.109Z,19.66
2023-04-24T11:47:34.831Z,19.35
2023-04-24T11:48:37.370Z,18.81
2023-04-24T11:49:34.099Z,19.49
2023-04-24T11:50:31.449Z,19.17
2023-04-24T11:51:31.278Z,18.68
2023-04-24T11:52:37.696Z,19.57
2023-04-24T11:53:34.400Z,19.98
2023-04-24T11:54:31.172Z,19.79
2023-04-24T11:55:29.345Z,20.00
2023-04-24T11:56:26.268Z,19.20
2023-04-24T11:57:27.377Z,19.49
2023-04-24T11:58:24.182Z,19.40
2023-04-24T11:59:20.861Z,19.31
2023-04-24T12:00:39.423Z,19.48
2023-04-24T12:01:46.757Z,19.49
2023-04-24T12:02:43.795Z,20.01
2023-04-24T12:03:44.156Z,20.40
2023-04-24T12:04:42.544Z,21.14
2023-04-24T12:05:40.356Z,21.10
2023-04-24T12:06:37.153Z,21.42
2023-04-24T12:07:43.763Z,21.52
2023-04-24T12:08:40.583Z,21.43
2023-04-24T12:09:47.597Z,21.03
2023-04-24T12:10:44.580Z,20.63
2023-04-24T12:11:58.092Z,20.27
2023-04-24T12:12:56.835Z,20.82
2023-04-24T12:13:53.577Z,20.41
2023-04-24T12:14:53.289Z,19.72
2023-04-24T12:15:51.764Z,19.51
2023-04-24T12:16:50.050Z,19.47
2023-04-24T12:17:47.448Z,19.36
2023-04-24T12:18:46.149Z,19.67
2023-04-24T12:19:50.137Z,19.74
2023-04-24T12:20:46.772Z,19.63
2023-04-24T12:21:43.493Z,19.69
2023-04-24T12:22:57.256Z,19.67
2023-04-24T12:23:56.042Z,20.04
2023-04-24T12:25:01.738Z,19.70
2023-04-24T12:26:02.460Z,19.01
2023-04-24T12:26:59.523Z,19.47
2023-04-24T12:27:57.047Z,19.38
2023-04-24T12:28:53.733Z,18.84
2023-04-24T12:29:54.855Z,18.37
2023-04-24T12:30:52.640Z,18.90
2023-04-24T12:31:49.761Z,19.17
2023-04-24T12:32:51.046Z,18.67
2023-04-24T12:33:47.717Z,18.45
2023-04-24T12:34:44.797Z,18.18
2023-04-24T12:35:42.426Z,18.21
2023-04-24T12:36:39.237Z,18.17
2023-04-24T12:37:37.527Z,18.24